createdAt,value
2023-01-17T00:01:46.766Z,94.07
2023-01-17T00:06:07.531Z,93.71
2023-01-17T00:10:12.675Z,93.89
2023-01-17T00:14:14.698Z,96.72
2023-01-17T00:18:17.624Z,93.40
2023-01-17T00:22:43.902Z,93.38
2023-01-17T00:27:04.550Z,92.47
2023-01-17T00:31:09.094Z,90.96
2023-01-17T00:35:11.138Z,91.16
2023-01-17T00:39:13.121Z,92.30
2023-01-17T00:43:37.032Z,92.56
2023-01-17T00:47:57.557Z,91.16
2023-01-17T00:52:18.297Z,90.92
2023-01-17T00:56:38.991Z,90.24
2023-01-17T01:00:59.927Z,89.39
2023-01-17T01:05:21.175Z,88.90
2023-01-17T01:09:41.934Z,87.49
2023-01-17T01:14:02.592Z,86.96
2023-01-17T01:18:27.676Z,85.84
2023-01-17T01:22:48.287Z,85.68
2023-01-17T01:27:08.740Z,85.41
2023-01-17T01:31:29.325Z,85.14
2023-01-17T01:35:31.393Z,85.19
2023-01-17T01:39:33.401Z,84.84
2023-01-17T01:43:54.071Z,84.48
2023-01-17T01:48:22.178Z,86.00
2023-01-17T01:52:28.032Z,87.34
2023-01-17T01:56:31.646Z,84.20
2023-01-17T02:00:36.283Z,81.69
2023-01-17T02:04:38.873Z,82.42
2023-01-17T02:08:41.404Z,82.90
2023-01-17T02:12:45.103Z,83.24
2023-01-17T02:17:20.980Z,82.21
2023-01-17T02:21:27.066Z,81.69
2023-01-17T02:25:58.878Z,82.04
2023-01-17T02:30:26.288Z,83.04
2023-01-17T02:34:30.351Z,82.61
2023-01-17T02:38:52.896Z,82.93
2023-01-17T02:43:06.419Z,83.34
2023-01-17T02:47:27.965Z,83.71
2023-01-17T02:52:07.204Z,84.15
2023-01-17T02:56:17.663Z,84.44
2023-01-17T03:00:36.852Z,84.58
2023-01-17T03:04:49.146Z,84.94
2023-01-17T03:08:53.097Z,85.40
2023-01-17T03:12:58.365Z,84.57
2023-01-17T03:17:00.399Z,83.65
2023-01-17T03:21:02.383Z,83.00
2023-01-17T03:25:05.097Z,80.76
2023-01-17T03:29:07.143Z,79.30
2023-01-17T03:33:09.178Z,79.12
2023-01-17T03:37:12.324Z,78.42
2023-01-17T03:41:14.293Z,77.38
2023-01-17T03:45:16.677Z,76.24
2023-01-17T03:49:18.727Z,74.47
2023-01-17T03:53:20.713Z,74.36
2023-01-17T03:57:22.773Z,72.28
2023-01-17T04:01:25.590Z,73.19
2023-01-17T04:05:27.726Z,71.55
2023-01-17T04:09:33.938Z,71.58
2023-01-17T04:13:35.948Z,70.89
2023-01-17T04:17:37.983Z,70.88
2023-01-17T04:21:39.988Z,78.07
2023-01-17T04:25:42.301Z,75.29
2023-01-17T04:29:46.597Z,74.88
2023-01-17T04:33:48.810Z,75.08
2023-01-17T04:37:51.791Z,76.11
2023-01-17T04:41:53.841Z,76.97
2023-01-17T04:45:57.087Z,77.31
2023-01-17T04:49:59.115Z,77.37
2023-01-17T04:54:01.122Z,78.23
2023-01-17T04:58:03.254Z,78.55
2023-01-17T05:02:05.328Z,79.39
2023-01-17T05:06:07.423Z,80.32
2023-01-17T05:10:10.265Z,79.76
2023-01-17T05:14:12.235Z,79.54
2023-01-17T05:18:16.960Z,78.71
2023-01-17T05:22:18.967Z,78.48
2023-01-17T05:26:20.968Z,79.05
2023-01-17T05:30:23.321Z,79.98
2023-01-17T05:34:25.404Z,79.86
2023-01-17T05:38:27.398Z,80.53
2023-01-17T05:42:29.402Z,81.39
2023-01-17T05:46:31.481Z,81.78
2023-01-17T05:50:36.520Z,81.65
2023-01-17T05:54:38.545Z,82.41
2023-01-17T05:58:40.563Z,82.05
2023-01-17T06:02:43.154Z,82.95
2023-01-17T06:06:45.174Z,83.86
2023-01-17T06:10:47.165Z,83.70
2023-01-17T06:14:49.224Z,83.44
2023-01-17T06:18:51.188Z,83.41
2023-01-17T06:22:55.204Z,84.82
2023-01-17T06:26:57.776Z,84.65
2023-01-17T06:30:59.915Z,84.92
2023-01-17T06:35:01.971Z,84.46
2023-01-17T06:39:05.081Z,83.85
2023-01-17T06:43:07.213Z,84.63
2023-01-17T06:47:09.250Z,85.04
2023-01-17T06:51:11.631Z,84.14
2023-01-17T06:55:13.691Z,83.53
2023-01-17T06:59:15.683Z,83.12
2023-01-17T07:03:20.603Z,82.42
2023-01-17T07:07:22.668Z,82.34
2023-01-17T07:11:24.895Z,82.70
2023-01-17T07:15:27.047Z,82.83
2023-01-17T07:19:29.623Z,83.42
2023-01-17T07:23:31.610Z,83.89
2023-01-17T07:27:33.698Z,84.15
2023-01-17T07:31:38.104Z,84.33
2023-01-17T07:35:40.133Z,85.79
2023-01-17T07:39:42.413Z,85.90
2023-01-17T07:43:44.459Z,85.04
2023-01-17T07:47:47.068Z,85.93
2023-01-17T07:51:49.122Z,85.75
2023-01-17T07:55:51.409Z,86.04
2023-01-17T07:59:53.478Z,85.98
2023-01-17T08:03:55.518Z,87.04
2023-01-17T08:07:57.528Z,88.03
2023-01-17T08:11:59.539Z,87.48
2023-01-17T08:16:04.463Z,86.44
2023-01-17T08:20:06.754Z,86.63
2023-01-17T08:24:13.595Z,87.53
2023-01-17T08:28:15.945Z,87.89
2023-01-17T08:32:18.009Z,87.88
2023-01-17T08:36:20.182Z,88.39
2023-01-17T08:40:23.360Z,88.00
2023-01-17T08:44:25.449Z,87.05
2023-01-17T08:48:27.455Z,85.65
2023-01-17T08:52:29.503Z,84.55
2023-01-17T08:56:31.528Z,83.19
2023-01-17T09:00:34.282Z,82.37
2023-01-17T09:04:36.373Z,82.44
2023-01-17T09:08:38.921Z,81.61
2023-01-17T09:12:40.947Z,80.35
2023-01-17T09:16:42.959Z,79.79
2023-01-17T09:20:44.991Z,78.70
2023-01-17T09:24:47.018Z,77.10
2023-01-17T09:28:49.476Z,76.59
2023-01-17T09:32:53.151Z,75.43
2023-01-17T09:36:56.857Z,74.17
2023-01-17T09:40:58.958Z,72.21
2023-01-17T09:45:01.167Z,69.08
2023-01-17T09:49:08.514Z,67.71
2023-01-17T09:53:16.048Z,66.09
2023-01-17T09:57:38.305Z,66.19
2023-01-17T10:01:58.784Z,66.30
2023-01-17T10:06:38.615Z,65.21
2023-01-17T10:10:43.243Z,64.22
2023-01-17T10:15:02.994Z,63.54
2023-01-17T10:19:33.162Z,62.34
2023-01-17T10:23:55.648Z,62.34
2023-01-17T10:28:00.108Z,61.73
2023-01-17T10:32:03.201Z,61.74
2023-01-17T10:36:15.319Z,61.69
2023-01-17T10:40:44.296Z,61.11
2023-01-17T10:44:59.369Z,60.07
2023-01-17T10:49:03.594Z,59.57
2023-01-17T10:53:31.502Z,58.21
2023-01-17T10:57:42.877Z,57.91
2023-01-17T11:01:45.482Z,57.12
2023-01-17T11:06:16.101Z,57.35
2023-01-17T11:10:40.173Z,57.68
2023-01-17T11:14:54.208Z,57.76
2023-01-17T11:19:15.130Z,58.41
2023-01-17T11:23:22.335Z,57.93
2023-01-17T11:27:24.250Z,56.88
2023-01-17T11:31:27.283Z,57.48
2023-01-17T11:35:30.954Z,57.73
2023-01-17T11:39:33.012Z,57.64
2023-01-17T11:43:53.159Z,57.12
2023-01-17T11:48:04.827Z,56.94
2023-01-17T11:52:11.570Z,56.58
2023-01-17T11:56:35.761Z,55.01
2023-01-17T12:00:45.874Z,54.39
2023-01-17T12:05:00.550Z,54.25
2023-01-17T12:09:24.783Z,54.77
2023-01-17T12:14:01.199Z,54.88
2023-01-17T12:18:30.709Z,55.77
2023-01-17T12:22:56.382Z,55.84
2023-01-17T12:27:38.150Z,54.70
2023-01-17T12:31:56.537Z,54.03
2023-01-17T12:36:02.975Z,54.80
2023-01-17T12:40:42.725Z,55.04
2023-01-17T12:45:09.658Z,54.81
2023-01-17T12:49:26.935Z,54.91
2023-01-17T12:53:38.123Z,55.25
2023-01-17T12:57:45.432Z,54.72
2023-01-17T13:01:58.052Z,55.57
2023-01-17T13:06:03.224Z,54.40
2023-01-17T13:10:26.439Z,52.45
2023-01-17T13:14:28.731Z,52.51
2023-01-17T13:18:33.199Z,53.50
2023-01-17T13:22:39.244Z,54.03
2023-01-17T13:26:50.364Z,55.95
2023-01-17T13:31:10.586Z,56.98
2023-01-17T13:35:35.907Z,58.10
2023-01-17T13:39:51.655Z,59.48
2023-01-17T13:44:12.763Z,60.60
2023-01-17T13:48:18.619Z,61.60
2023-01-17T13:52:20.578Z,61.69
2023-01-17T13:56:22.508Z,62.11
2023-01-17T14:00:27.504Z,63.78
2023-01-17T14:05:07.973Z,64.78
2023-01-17T14:09:31.091Z,65.14
2023-01-17T14:13:39.907Z,65.86
2023-01-17T14:17:50.822Z,65.78
2023-01-17T14:22:15.102Z,63.64
2023-01-17T14:26:21.859Z,58.60
2023-01-17T14:30:33.644Z,56.67
2023-01-17T14:34:36.525Z,55.38
2023-01-17T14:38:42.776Z,54.88
2023-01-17T14:42:47.074Z,55.05
2023-01-17T14:46:49.258Z,55.00
2023-01-17T14:50:54.171Z,54.79
2023-01-17T14:54:56.195Z,54.53
2023-01-17T14:59:21.025Z,54.72
2023-01-17T15:03:23.177Z,55.35
2023-01-17T15:07:27.237Z,56.07
2023-01-17T15:11:33.561Z,57.27
2023-01-17T15:15:39.490Z,58.46
2023-01-17T15:19:47.819Z,59.14
2023-01-17T15:23:55.225Z,59.56
2023-01-17T15:27:57.654Z,59.65
2023-01-17T15:32:05.623Z,60.44
2023-01-17T15:36:13.316Z,61.01
2023-01-17T15:40:24.315Z,61.94
2023-01-17T15:44:48.083Z,62.49
2023-01-17T15:48:51.764Z,63.09
2023-01-17T15:53:02.939Z,63.69
2023-01-17T15:57:23.349Z,65.08
2023-01-17T16:01:28.462Z,64.97
2023-01-17T16:05:33.914Z,65.44
2023-01-17T16:09:43.801Z,66.14
2023-01-17T16:13:47.325Z,66.55
2023-01-17T16:18:11.160Z,67.06
2023-01-17T16:22:13.316Z,67.26
2023-01-17T16:26:15.858Z,68.29
2023-01-17T16:30:19.862Z,68.79
2023-01-17T16:34:23.851Z,69.64
2023-01-17T16:38:26.088Z,70.55
2023-01-17T16:42:28.691Z,71.29
2023-01-17T16:46:30.920Z,71.02
2023-01-17T16:50:33.131Z,73.22
2023-01-17T16:54:35.226Z,74.18
2023-01-17T16:58:37.499Z,73.95
2023-01-17T17:02:40.646Z,73.78
2023-01-17T17:06:42.854Z,74.88
2023-01-17T17:10:44.879Z,76.01
2023-01-17T17:14:46.952Z,75.66
2023-01-17T17:18:57.905Z,76.55
2023-01-17T17:22:59.977Z,77.08
2023-01-17T17:27:02.025Z,77.42
2023-01-17T17:31:06.893Z,77.34
2023-01-17T17:35:09.300Z,77.58
2023-01-17T17:39:14.767Z,78.01
2023-01-17T17:43:16.903Z,78.13
2023-01-17T17:47:19.273Z,79.20
2023-01-17T17:51:30.303Z,78.88
2023-01-17T17:55:32.738Z,79.87
2023-01-17T17:59:34.830Z,80.17
2023-01-17T18:03:37.227Z,79.83
2023-01-17T18:07:39.326Z,79.90
2023-01-17T18:11:42.878Z,79.68
2023-01-17T18:15:45.017Z,80.59
2023-01-17T18:19:47.333Z,81.26
2023-01-17T18:23:53.008Z,81.50
2023-01-17T18:27:56.409Z,81.48
2023-01-17T18:31:58.573Z,80.90
2023-01-17T18:36:01.732Z,81.58
2023-01-17T18:40:05.207Z,81.48
2023-01-17T18:44:07.770Z,82.46
2023-01-17T18:48:09.925Z,81.94
2023-01-17T18:52:12.063Z,82.19
2023-01-17T18:56:17.960Z,82.55
2023-01-17T19:00:20.578Z,82.08
2023-01-17T19:04:22.812Z,82.73
2023-01-17T19:08:24.903Z,83.40
2023-01-17T19:12:26.939Z,83.78
2023-01-17T19:16:31.595Z,84.51
2023-01-17T19:20:35.023Z,84.79
2023-01-17T19:24:38.308Z,84.75
2023-01-17T19:28:48.957Z,84.20
2023-01-17T19:32:56.079Z,83.77
2023-01-17T19:36:58.171Z,84.37
2023-01-17T19:41:28.489Z,83.50
2023-01-17T19:45:30.844Z,83.76
2023-01-17T19:49:33.991Z,83.05
2023-01-17T19:53:37.245Z,82.56
2023-01-17T19:57:40.563Z,82.35
2023-01-17T20:01:42.884Z,82.55
2023-01-17T20:05:46.157Z,81.79
2023-01-17T20:09:48.273Z,81.76
2023-01-17T20:13:55.831Z,82.18
2023-01-17T20:17:58.319Z,81.04
2023-01-17T20:22:00.779Z,82.02
2023-01-17T20:26:03.505Z,81.76
2023-01-17T20:30:19.312Z,81.49
2023-01-17T20:34:25.603Z,81.51
2023-01-17T20:38:43.678Z,81.60
2023-01-17T20:42:45.785Z,82.34
2023-01-17T20:46:48.194Z,82.42
2023-01-17T20:50:50.354Z,83.22
2023-01-17T20:54:52.621Z,84.16
2023-01-17T20:58:54.975Z,84.44
2023-01-17T21:02:57.059Z,85.62
2023-01-17T21:06:59.248Z,84.73
2023-01-17T21:11:01.486Z,85.44
2023-01-17T21:15:04.441Z,85.85
2023-01-17T21:19:09.138Z,85.03
2023-01-17T21:23:17.972Z,88.05
2023-01-17T21:27:21.595Z,87.43
2023-01-17T21:31:29.086Z,87.62
2023-01-17T21:35:31.682Z,87.16
2023-01-17T21:39:33.737Z,88.59
2023-01-17T21:43:38.279Z,88.04
2023-01-17T21:47:44.427Z,88.14
2023-01-17T21:51:55.323Z,87.43
2023-01-17T21:56:23.801Z,87.34
2023-01-17T22:00:25.862Z,86.89
2023-01-17T22:04:29.454Z,86.98
2023-01-17T22:08:37.974Z,86.88
2023-01-17T22:12:40.049Z,86.71
2023-01-17T22:16:42.143Z,85.96
2023-01-17T22:20:44.286Z,86.66
2023-01-17T22:24:46.879Z,87.32
2023-01-17T22:28:49.023Z,86.26
2023-01-17T22:32:51.159Z,85.85
2023-01-17T22:36:53.588Z,86.92
2023-01-17T22:41:07.819Z,87.99
2023-01-17T22:45:10.545Z,87.71
2023-01-17T22:49:13.944Z,87.79
2023-01-17T22:53:16.060Z,87.82
2023-01-17T22:57:18.345Z,87.30
2023-01-17T23:01:21.340Z,86.68
2023-01-17T23:05:23.511Z,86.69
2023-01-17T23:09:25.800Z,87.76
2023-01-17T23:13:27.875Z,88.28
2023-01-17T23:17:48.747Z,87.12
2023-01-17T23:22:11.979Z,87.26
2023-01-17T23:26:14.020Z,87.20
2023-01-17T23:30:23.527Z,87.79
2023-01-17T23:34:25.727Z,87.79
2023-01-17T23:38:30.806Z,87.85
2023-01-17T23:42:51.632Z,87.64
2023-01-17T23:46:53.736Z,88.32
2023-01-17T23:51:06.917Z,87.69
2023-01-17T23:55:09.379Z,88.17
2023-01-17T23:59:11.548Z,89.45
